KIRK

Kirksville Regional Airport

Airport
ICAO code
KIRK
IATA Code
IRK
Summary
ICAO Region
NAM
ICAO Territory
Location

Kirksville, Missouri

Serving
Kirksville
Elevation
966 ft
Coordinates
40° 5' 37" N , 92° 32' 42" W
KCC
Metar
KIRK 222255Z AUTO 34005KT 10SM CLR 17/M01 A2977 RMK AO2 SLP085 T01671006 $

Kirksville Regional Airport is a public airport located 4 nm south of the central business district of Kirksville, a city in Adair County, Missouri, USA. Owned by the City of Kirksville, the airport is mostly used for general aviation, but is also served by one commercial airline.

 

Airport map

Aerial View

SKYbrary Partners:

Safety knowledge contributed by: